Terminal Aerodrome Forecast
Issued by NWS Sioux Falls, SD

Home | Current Version | Previous Version | Graphics & Text | Print | Product List | Glossary On
Versions: 1 2 3 4 5 6 7 8 9 10 11 12 13 14 15 16 17 18 19 20 21
140
FTUS43 KFSD 111140
TAFHON
TAF
KHON 111140Z 1112/1212 15006KT P6SM OVC025
     FM111500 15008KT P6SM -SN OVC012
     FM111700 14011KT 2SM -SN BR OVC007
     FM112100 11007KT 5SM -SN OVC015
     FM112300 10005KT P6SM OVC015
     FM120300 33005KT P6SM OVC025
     FM120900 36015KT P6SM SCT020 BKN080=

USA.gov is the U.S. government's official web portal to all federal, state and local government web resources and services.